Time;durP1;ratioP1;P1;durP2;ratioP2;P2;SDS_P1;SDS_P2;PMS_P1;PMS_P2;Temp;Humidity;BMP_temperature;BMP_pressure;BME280_temperature;BME280_humidity;BME280_pressure;Samples;Min_cycle;Max_cycle;Signal;HPM_P1;HPM_P2
2021/10/05 00:00:38;;;;;;;10.80;6.53;;;;;;;9.44;82.64;95722.56;5086256;28;20032;-67
2021/10/05 00:03:05;;;;;;;10.50;6.10;;;;;;;9.43;83.18;95731.34;5085169;28;20046;-68
2021/10/05 00:05:33;;;;;;;8.60;5.10;;;;;;;9.27;84.17;95738.53;5085996;28;20040;-68
2021/10/05 00:08:00;;;;;;;9.27;6.47;;;;;;;9.18;85.47;95734.53;5091278;28;20036;-67
2021/10/05 00:10:27;;;;;;;12.95;6.00;;;;;;;9.14;84.66;95718.53;5093528;28;20047;-68
2021/10/05 00:12:54;;;;;;;12.63;7.05;;;;;;;9.23;84.67;95726.94;5067968;28;20068;-67
2021/10/05 00:15:22;;;;;;;13.07;6.70;;;;;;;9.28;84.56;95727.16;5085286;28;20102;-68
2021/10/05 00:17:49;;;;;;;11.80;6.43;;;;;;;9.20;85.67;95732.56;5084219;28;20047;-68
2021/10/05 00:20:16;;;;;;;9.23;6.28;;;;;;;9.09;86.29;95730.53;5090527;28;20036;-68
2021/10/05 00:22:43;;;;;;;19.63;9.55;;;;;;;9.14;86.13;95733.34;5082103;28;20511;-68
2021/10/05 00:25:12;;;;;;;10.75;6.70;;;;;;;9.16;85.85;95726.97;5084712;28;20044;-67
2021/10/05 00:27:39;;;;;;;10.82;6.47;;;;;;;9.26;85.05;95731.75;5081232;28;20106;-68
2021/10/05 00:30:07;;;;;;;10.50;6.28;;;;;;;9.32;84.34;95730.94;5084634;28;20055;-68
2021/10/05 00:32:34;;;;;;;11.55;6.65;;;;;;;9.23;84.61;95729.53;5086786;28;20112;-67
2021/10/05 00:35:01;;;;;;;8.82;6.40;;;;;;;9.22;84.54;95724.53;5084615;28;20420;-67
2021/10/05 00:37:28;;;;;;;10.45;6.93;;;;;;;9.10;85.06;95732.16;5085211;28;20040;-68
2021/10/05 00:39:55;;;;;;;8.35;5.57;;;;;;;9.04;85.27;95722.53;5085510;28;20044;-68
2021/10/05 00:42:22;;;;;;;10.07;5.65;;;;;;;9.01;85.37;95725.56;5083998;28;20040;-68
2021/10/05 00:44:50;;;;;;;9.15;6.18;;;;;;;8.97;85.68;95733.72;5085310;28;20044;-68
2021/10/05 00:47:17;;;;;;;9.43;5.88;;;;;;;8.91;86.72;95728.53;5084335;28;20073;-68
2021/10/05 00:49:46;;;;;;;7.80;5.03;;;;;;;8.93;86.53;95727.34;5085019;28;20116;-68
2021/10/05 00:52:15;;;;;;;8.07;5.57;;;;;;;8.93;86.15;95731.72;5085091;28;20485;-67
2021/10/05 00:54:42;;;;;;;8.60;6.20;;;;;;;8.90;85.93;95712.13;5085299;28;20048;-67
2021/10/05 00:57:11;;;;;;;9.82;5.85;;;;;;;9.03;86.13;95724.34;5085005;28;20040;-68
2021/10/05 00:59:38;;;;;;;8.32;6.00;;;;;;;9.08;85.44;95718.56;5083356;28;20519;-68
2021/10/05 01:02:08;;;;;;;10.63;5.85;;;;;;;9.16;84.28;95718.34;5083707;28;20054;-67
2021/10/05 01:04:34;;;;;;;9.25;6.28;;;;;;;9.18;84.50;95724.13;5081622;28;20051;-67
2021/10/05 01:07:14;;;;;;;9.63;6.07;;;;;;;8.96;85.26;95721.72;5084755;28;20043;-67
2021/10/05 01:09:42;;;;;;;9.27;5.93;;;;;;;8.97;85.18;95712.94;5085449;28;20054;-67
2021/10/05 01:12:09;;;;;;;9.98;5.90;;;;;;;8.91;84.95;95703.38;5084004;28;20058;-68
2021/10/05 01:14:36;;;;;;;7.45;4.82;;;;;;;8.95;85.55;95712.34;5067891;28;20048;-68
2021/10/05 01:17:05;;;;;;;9.65;5.70;;;;;;;8.93;85.32;95706.56;5082620;28;20048;-67
2021/10/05 01:19:32;;;;;;;7.63;4.88;;;;;;;8.89;85.56;95700.13;5085344;28;20421;-67
2021/10/05 01:22:00;;;;;;;8.40;4.80;;;;;;;8.93;85.81;95696.16;5084460;28;20071;-67
2021/10/05 01:24:27;;;;;;;9.98;5.32;;;;;;;8.94;85.73;95697.75;5081944;28;20040;-68
2021/10/05 01:26:56;;;;;;;6.63;4.85;;;;;;;8.91;85.45;95692.97;5087815;28;20055;-67
2021/10/05 01:29:27;;;;;;;7.28;4.38;;;;;;;8.84;85.98;95689.56;5084489;28;20043;-68
2021/10/05 01:31:55;;;;;;;7.15;4.72;;;;;;;8.84;86.32;95697.34;5082977;28;20424;-67
2021/10/05 01:34:23;;;;;;;8.40;4.93;;;;;;;8.77;86.83;95712.13;5083693;28;20111;-67
2021/10/05 01:36:52;;;;;;;10.20;6.00;;;;;;;8.72;86.68;95693.75;5084173;28;20493;-68
2021/10/05 01:39:34;;;;;;;7.28;4.85;;;;;;;8.58;87.59;95698.91;5083822;28;20047;-67
2021/10/05 01:42:06;;;;;;;9.50;5.32;;;;;;;8.56;87.92;95706.09;5097341;28;20048;-67
2021/10/05 01:44:34;;;;;;;7.78;4.45;;;;;;;8.40;89.08;95711.59;5104879;28;20043;-67
2021/10/05 01:47:04;;;;;;;10.82;6.38;;;;;;;8.40;88.45;95711.59;5104709;28;20054;-67
2021/10/05 01:49:30;;;;;;;15.40;5.63;;;;;;;8.36;88.95;95705.22;5105395;28;20058;-67
2021/10/05 01:51:58;;;;;;;9.20;6.20;;;;;;;8.52;88.76;95714.47;5105293;28;20047;-67
2021/10/05 01:54:25;;;;;;;8.50;5.30;;;;;;;8.56;88.43;95706.09;5102882;28;20058;-67
2021/10/05 01:56:52;;;;;;;9.48;5.93;;;;;;;8.65;87.53;95714.50;5094724;28;20042;-67
2021/10/05 01:59:18;;;;;;;6.55;5.13;;;;;;;8.66;87.51;95704.91;5105339;28;20500;-67
2021/10/05 02:01:45;;;;;;;7.95;5.18;;;;;;;8.66;86.81;95699.72;5101147;28;20046;-68
2021/10/05 02:04:13;;;;;;;8.70;4.82;;;;;;;8.69;86.90;95699.31;5105236;28;20512;-67
2021/10/05 02:06:41;;;;;;;6.90;4.68;;;;;;;8.69;86.63;95701.91;5104801;28;20072;-67
2021/10/05 02:09:10;;;;;;;8.02;4.65;;;;;;;8.54;86.88;95705.50;5105497;28;20056;-67
2021/10/05 02:11:37;;;;;;;9.15;5.50;;;;;;;8.50;87.10;95716.44;5097331;28;20465;-67
2021/10/05 02:14:04;;;;;;;9.65;5.53;;;;;;;8.41;87.91;95708.03;5085178;28;20047;-67
2021/10/05 02:16:33;;;;;;;10.30;5.70;;;;;;;8.19;88.03;95684.81;5085002;28;20480;-67
2021/10/05 02:19:01;;;;;;;8.00;5.35;;;;;;;8.40;88.10;95707.22;5090158;28;20040;-67
2021/10/05 02:21:28;;;;;;;7.57;5.13;;;;;;;8.42;87.69;95704.44;5105384;28;20409;-68
2021/10/05 02:26:41;;;;;;;7.65;5.05;;;;;;;8.50;87.08;95709.47;5105116;28;20031;-67
2021/10/05 02:29:08;;;;;;;10.35;5.43;;;;;;;8.47;87.21;95707.25;5104975;28;20788;-67
2021/10/05 02:31:34;;;;;;;10.48;5.45;;;;;;;8.40;87.22;95712.41;5104858;28;20575;-67
2021/10/05 02:34:03;;;;;;;7.45;5.15;;;;;;;8.30;87.56;95698.19;5104995;28;20112;-67
2021/10/05 02:36:30;;;;;;;9.38;4.25;;;;;;;8.27;88.32;95716.78;5093609;28;20567;-67
2021/10/05 02:38:57;;;;;;;6.32;4.32;;;;;;;8.21;89.09;95708.75;5088585;28;20476;-67
2021/10/05 02:41:24;;;;;;;9.30;4.80;;;;;;;8.15;89.87;95706.13;5084910;28;20773;-67
2021/10/05 02:43:50;;;;;;;8.40;5.18;;;;;;;7.99;90.72;95699.47;5096445;28;20043;-67
2021/10/05 02:46:17;;;;;;;7.80;4.65;;;;;;;8.02;91.05;95706.88;5098225;28;20046;-67
2021/10/05 02:48:44;;;;;;;6.65;4.70;;;;;;;7.95;91.75;95708.63;5089869;28;20047;-67
2021/10/05 02:51:11;;;;;;;8.55;4.70;;;;;;;8.06;91.48;95705.50;5092629;28;20043;-67
2021/10/05 02:53:38;;;;;;;6.47;4.20;;;;;;;7.97;91.31;95693.69;5093250;28;20101;-67
2021/10/05 02:56:05;;;;;;;7.75;5.20;;;;;;;7.99;91.61;95715.03;5084778;28;20048;-67
2021/10/05 02:58:31;;;;;;;5.97;3.72;;;;;;;7.95;91.52;95708.63;5100156;28;20044;-68
2021/10/05 03:00:58;;;;;;;8.77;4.55;;;;;;;8.06;91.02;95715.88;5086091;28;20450;-67
2021/10/05 03:03:25;;;;;;;8.95;4.93;;;;;;;8.00;90.92;95714.06;5090305;28;20043;-67
2021/10/05 03:05:52;;;;;;;7.55;4.57;;;;;;;8.02;90.70;95719.84;5084600;28;20931;-67
2021/10/05 03:08:19;;;;;;;6.82;4.30;;;;;;;8.01;90.46;95706.09;5083461;28;22188;-67
2021/10/05 03:10:45;;;;;;;8.55;3.85;;;;;;;7.90;90.85;95695.44;5084965;28;20056;-67
2021/10/05 03:13:12;;;;;;;7.38;4.60;;;;;;;7.98;90.64;95709.06;5092245;28;20054;-67
2021/10/05 03:15:39;;;;;;;7.47;3.97;;;;;;;7.98;90.78;95719.44;5083506;28;20056;-67
2021/10/05 03:18:06;;;;;;;6.85;4.60;;;;;;;8.04;90.48;95707.47;5104616;28;20496;-67
2021/10/05 03:20:32;;;;;;;9.25;4.43;;;;;;;8.05;90.20;95703.91;5104235;28;20062;-67
2021/10/05 03:22:59;;;;;;;6.03;4.10;;;;;;;8.02;89.92;95699.09;5106583;28;20054;-67
2021/10/05 03:25:26;;;;;;;9.90;4.95;;;;;;;7.84;91.40;95697.81;5108826;28;20040;-67
2021/10/05 03:27:53;;;;;;;9.18;4.13;;;;;;;7.92;91.37;95709.03;5108331;28;20408;-67
2021/10/05 03:30:19;;;;;;;7.72;4.35;;;;;;;7.93;91.04;95710.63;5096443;28;21006;-67
2021/10/05 03:32:46;;;;;;;5.40;3.88;;;;;;;8.06;90.26;95715.88;5097502;28;20039;-67
2021/10/05 03:35:13;;;;;;;5.03;3.55;;;;;;;8.05;90.18;95714.28;5107352;28;20035;-67
2021/10/05 03:37:40;;;;;;;6.72;4.57;;;;;;;8.02;90.45;95725.03;5087092;28;20036;-67
2021/10/05 03:40:07;;;;;;;7.00;4.75;;;;;;;8.11;89.87;95723.88;5091635;28;20118;-67
2021/10/05 03:42:34;;;;;;;9.38;4.80;;;;;;;7.90;90.38;95711.00;5107874;28;20043;-67
2021/10/05 03:45:01;;;;;;;6.13;3.78;;;;;;;7.95;90.52;95719.03;5108381;28;20052;-67
2021/10/05 03:47:28;;;;;;;6.60;4.20;;;;;;;8.02;90.10;95728.44;5101101;28;20028;-68
2021/10/05 03:49:54;;;;;;;5.22;3.85;;;;;;;8.04;89.81;95728.25;5087774;28;20463;-67
2021/10/05 03:52:21;;;;;;;13.20;4.72;;;;;;;8.00;89.27;95725.22;5070199;28;20412;-67
2021/10/05 03:54:48;;;;;;;7.85;4.15;;;;;;;8.03;89.08;95726.63;5107034;28;20058;-66
2021/10/05 03:57:18;;;;;;;7.93;4.28;;;;;;;7.99;89.51;95725.41;5081257;28;20806;-66
2021/10/05 03:59:46;;;;;;;11.07;4.13;;;;;;;7.90;90.32;95729.16;5101210;28;20062;-66
2021/10/05 04:02:13;;;;;;;5.72;3.92;;;;;;;7.93;90.07;95719.22;5105092;28;20039;-67
2021/10/05 04:04:40;;;;;;;6.55;4.53;;;;;;;8.04;89.39;95717.84;5069004;28;20163;-67
2021/10/05 04:07:07;;;;;;;9.00;4.47;;;;;;;8.07;88.35;95717.47;5092859;28;20531;-67
2021/10/05 04:09:34;;;;;;;9.88;4.68;;;;;;;8.12;87.91;95720.31;5090627;28;20044;-64
2021/10/05 04:12:01;;;;;;;10.10;4.05;;;;;;;8.18;87.90;95729.91;5107531;28;20035;-65
2021/10/05 04:14:28;;;;;;;6.90;4.95;;;;;;;8.23;87.76;95732.72;5106797;28;20428;-65
2021/10/05 04:16:55;;;;;;;7.10;4.50;;;;;;;8.27;87.55;95732.34;5087311;28;20058;-65
2021/10/05 04:19:21;;;;;;;6.78;4.45;;;;;;;8.25;87.28;95735.13;5098642;28;20463;-67
2021/10/05 04:21:48;;;;;;;8.35;4.03;;;;;;;8.28;86.79;95731.31;5087320;28;20520;-67
2021/10/05 04:24:15;;;;;;;6.13;4.13;;;;;;;8.33;86.58;95731.56;5089206;28;20044;-67
2021/10/05 04:26:42;;;;;;;15.13;6.32;;;;;;;8.26;86.57;95735.91;5086716;28;20043;-67
2021/10/05 04:29:08;;;;;;;9.43;4.00;;;;;;;8.15;86.90;95735.47;5098064;28;20516;-68
2021/10/05 04:31:39;;;;;;;8.32;4.90;;;;;;;8.12;87.94;95748.84;5069254;28;20044;-67
2021/10/05 04:34:06;;;;;;;7.88;4.53;;;;;;;8.11;88.53;95755.00;5086685;28;20052;-67
2021/10/05 04:36:33;;;;;;;10.18;5.28;;;;;;;8.13;89.65;95750.44;5100101;28;20592;-68
2021/10/05 04:39:00;;;;;;;10.00;5.22;;;;;;;8.06;90.03;95741.03;5094150;28;20040;-68
2021/10/05 04:41:26;;;;;;;9.93;5.30;;;;;;;8.09;89.88;95757.00;5080767;28;20051;-68
2021/10/05 04:43:53;;;;;;;9.93;5.10;;;;;;;8.13;89.45;95750.44;5106988;28;20057;-68
2021/10/05 04:46:20;;;;;;;9.93;5.22;;;;;;;8.06;89.83;95757.38;5094721;28;20044;-68
2021/10/05 04:48:47;;;;;;;9.05;5.13;;;;;;;7.97;89.61;95737.78;5099989;28;20047;-68
2021/10/05 04:51:14;;;;;;;8.85;5.40;;;;;;;8.04;90.53;95764.56;5096761;28;20040;-68
2021/10/05 04:53:41;;;;;;;7.05;4.80;;;;;;;7.77;92.53;95769.59;5097314;28;20070;-68
2021/10/05 04:56:07;;;;;;;8.00;5.30;;;;;;;7.72;92.76;95761.56;5105676;28;20035;-68
2021/10/05 04:58:34;;;;;;;14.20;6.10;;;;;;;7.59;94.25;95758.91;5089456;28;20331;-65
2021/10/05 05:01:01;;;;;;;8.00;4.85;;;;;;;7.70;94.15;95762.75;5085488;28;20488;-65
2021/10/05 05:03:28;;;;;;;9.88;4.80;;;;;;;7.84;93.52;95775.63;5089004;28;20044;-65
2021/10/05 05:05:55;;;;;;;10.02;5.07;;;;;;;7.70;93.61;95763.56;5087085;28;20048;-67
2021/10/05 05:08:22;;;;;;;11.68;6.10;;;;;;;7.80;93.43;95779.59;5086517;28;20055;-66
2021/10/05 05:10:49;;;;;;;11.57;6.85;;;;;;;7.77;93.59;95772.19;5085301;28;20036;-66
2021/10/05 05:13:15;;;;;;;19.00;8.98;;;;;;;7.68;93.97;95770.72;5085347;28;20101;-66
2021/10/05 05:15:43;;;;;;;12.07;7.05;;;;;;;7.81;93.30;95786.41;5106312;28;20039;-66
2021/10/05 05:18:10;;;;;;;13.60;7.60;;;;;;;7.89;93.08;95795.81;5106212;28;20035;-66
2021/10/05 05:20:37;;;;;;;11.13;6.53;;;;;;;7.97;92.94;95797.44;5105975;28;20036;-66
2021/10/05 05:23:04;;;;;;;13.02;6.07;;;;;;;7.92;92.82;95779.06;5106270;28;20461;-66
2021/10/05 05:25:31;;;;;;;12.00;6.47;;;;;;;8.01;92.47;95796.06;5085583;28;20048;-66
2021/10/05 05:27:58;;;;;;;12.20;5.82;;;;;;;8.05;92.56;95802.50;5074946;28;20630;-66
2021/10/05 05:30:25;;;;;;;12.48;6.53;;;;;;;8.13;92.91;95799.72;5088096;28;20063;-66
2021/10/05 05:32:53;;;;;;;8.10;5.32;;;;;;;8.14;92.45;95795.34;5089237;28;20072;-66
2021/10/05 05:35:20;;;;;;;8.25;4.88;;;;;;;8.21;92.56;95781.41;5087729;28;20048;-66
2021/10/05 05:37:47;;;;;;;10.55;6.05;;;;;;;8.34;91.79;95785.06;5084455;28;20036;-65
2021/10/05 05:40:14;;;;;;;11.18;5.65;;;;;;;8.46;90.68;95793.91;5084390;28;20044;-66
2021/10/05 05:42:41;;;;;;;11.85;6.25;;;;;;;8.44;90.91;95792.53;5085920;28;20579;-66
2021/10/05 05:45:08;;;;;;;9.93;5.95;;;;;;;8.49;91.11;95798.75;5089834;28;20044;-66
2021/10/05 05:47:36;;;;;;;12.68;6.18;;;;;;;8.51;91.38;95801.94;5086537;28;20402;-66
2021/10/05 05:50:08;;;;;;;10.05;5.55;;;;;;;8.52;92.33;95793.16;5079085;28;20429;-66
2021/10/05 05:52:35;;;;;;;6.72;4.38;;;;;;;8.41;92.54;95780.72;5084373;28;20044;-65
2021/10/05 05:55:03;;;;;;;10.30;5.78;;;;;;;8.49;93.06;95785.75;5086938;28;20044;-65
2021/10/05 05:57:30;;;;;;;7.78;4.65;;;;;;;8.64;92.99;95797.78;5085915;28;20040;-65
2021/10/05 05:59:58;;;;;;;9.60;5.53;;;;;;;8.68;94.15;95801.59;5091425;28;20534;-65
2021/10/05 06:02:25;;;;;;;7.65;4.97;;;;;;;8.70;96.07;95804.81;5084677;28;20085;-65
2021/10/05 06:04:52;;;;;;;8.40;5.63;;;;;;;8.86;97.75;95798.44;5085478;28;20076;-65
2021/10/05 06:07:19;;;;;;;12.50;6.85;;;;;;;8.94;97.80;95801.69;5096844;28;20048;-65
2021/10/05 06:09:46;;;;;;;8.50;5.30;;;;;;;9.06;97.42;95788.91;5100818;28;20066;-65
2021/10/05 06:12:17;;;;;;;13.10;7.63;;;;;;;9.28;96.58;95799.94;5074904;28;20039;-66
2021/10/05 06:14:44;;;;;;;11.93;8.43;;;;;;;9.44;95.45;95800.56;5105680;28;20535;-65
2021/10/05 06:17:12;;;;;;;15.10;6.40;;;;;;;9.58;95.27;95791.75;5086753;28;20134;-65
2021/10/05 06:19:39;;;;;;;8.77;5.50;;;;;;;9.73;93.49;95794.94;5083911;28;20048;-65
2021/10/05 06:22:06;;;;;;;7.90;5.63;;;;;;;9.85;92.64;95789.13;5083859;28;20055;-65
2021/10/05 06:24:32;;;;;;;8.38;5.70;;;;;;;9.90;92.46;95784.94;5078258;28;20040;-66
2021/10/05 06:26:59;;;;;;;8.18;4.70;;;;;;;10.06;91.85;95799.28;5095082;28;20090;-66
2021/10/05 06:29:26;;;;;;;7.22;4.38;;;;;;;10.22;90.17;95792.06;5080890;28;20085;-65
2021/10/05 06:31:53;;;;;;;5.65;3.97;;;;;;;10.21;90.09;95803.47;5081291;28;20063;-66
2021/10/05 06:34:20;;;;;;;7.10;4.22;;;;;;;10.21;89.36;95787.84;5081957;28;20044;-65
2021/10/05 06:36:47;;;;;;;8.25;4.32;;;;;;;10.18;90.18;95780.47;5088597;28;20051;-65
2021/10/05 06:39:13;;;;;;;7.22;4.63;;;;;;;10.34;90.25;95806.06;5084055;28;20094;-66
2021/10/05 06:41:40;;;;;;;9.57;5.97;;;;;;;10.39;89.48;95808.88;5091711;28;20059;-66
2021/10/05 06:44:07;;;;;;;6.38;4.85;;;;;;;10.39;88.91;95793.25;5084185;28;20140;-65
2021/10/05 06:46:34;;;;;;;7.88;5.43;;;;;;;10.51;89.32;95804.63;5089981;28;20059;-65
2021/10/05 06:49:00;;;;;;;7.93;4.65;;;;;;;10.55;89.28;95812.00;5086582;28;20101;-65
2021/10/05 06:51:27;;;;;;;8.95;4.95;;;;;;;10.63;88.57;95809.97;5082540;28;20048;-65
2021/10/05 06:53:54;;;;;;;6.40;4.30;;;;;;;10.67;89.03;95799.94;5084990;28;20032;-66
2021/10/05 06:56:21;;;;;;;6.65;4.57;;;;;;;10.86;89.13;95804.25;5089675;28;20044;-65
2021/10/05 06:58:48;;;;;;;9.35;5.05;;;;;;;11.05;87.98;95797.31;5106570;28;20544;-65
2021/10/05 07:01:14;;;;;;;6.72;4.20;;;;;;;11.22;87.27;95795.03;5099156;28;20044;-65
2021/10/05 07:03:41;;;;;;;8.20;4.90;;;;;;;11.45;87.41;95791.03;5101796;28;20078;-66
2021/10/05 07:06:08;;;;;;;8.80;4.68;;;;;;;11.57;86.04;95794.56;5082852;28;20048;-66
2021/10/05 07:08:35;;;;;;;5.63;4.65;;;;;;;11.81;86.59;95784.31;5101700;28;20525;-66
2021/10/05 07:11:02;;;;;;;6.13;4.22;;;;;;;12.00;86.30;95782.59;5099720;28;20042;-66
2021/10/05 07:13:29;;;;;;;3.97;3.40;;;;;;;12.26;85.06;95781.50;5086425;28;20059;-65
2021/10/05 07:15:56;;;;;;;4.03;2.55;;;;;;;12.46;82.59;95770.03;5088231;28;20055;-65
2021/10/05 07:18:23;;;;;;;10.85;3.92;;;;;;;12.75;82.35;95774.50;5088758;28;20504;-66
2021/10/05 07:20:49;;;;;;;8.00;3.80;;;;;;;12.69;81.17;95738.78;5088836;28;20040;-66
2021/10/05 07:23:16;;;;;;;7.22;4.43;;;;;;;13.19;79.75;95775.06;5085271;28;20477;-65
2021/10/05 07:25:43;;;;;;;6.25;4.03;;;;;;;13.26;78.47;95758.50;5092588;28;20436;-65
2021/10/05 07:28:11;;;;;;;5.53;3.33;;;;;;;13.36;77.80;95756.97;5087773;28;20047;-66
2021/10/05 07:30:38;;;;;;;4.55;3.38;;;;;;;13.46;76.89;95745.94;5089917;28;20028;-66
2021/10/05 07:33:06;;;;;;;6.00;3.22;;;;;;;13.63;76.52;95768.81;5094288;28;20063;-66
2021/10/05 07:35:33;;;;;;;6.20;3.63;;;;;;;13.78;76.20;95774.41;5101121;28;20485;-66
2021/10/05 07:38:00;;;;;;;6.43;4.55;;;;;;;13.87;74.19;95770.41;5080442;28;20044;-66
2021/10/05 07:40:28;;;;;;;6.38;3.30;;;;;;;13.88;74.28;95755.50;5086474;28;20044;-67
2021/10/05 07:42:57;;;;;;;3.65;2.88;;;;;;;14.05;74.31;95763.47;5071339;28;20055;-66
2021/10/05 07:45:26;;;;;;;4.63;2.72;;;;;;;14.25;72.88;95760.47;5078825;28;20036;-66
2021/10/05 07:47:53;;;;;;;4.03;2.85;;;;;;;14.31;72.64;95755.13;5090524;28;20074;-66
2021/10/05 07:50:22;;;;;;;3.78;2.60;;;;;;;14.54;72.00;95758.69;5086698;28;20044;-66
2021/10/05 07:52:49;;;;;;;5.32;3.28;;;;;;;14.63;71.58;95762.56;5090164;28;20134;-67
2021/10/05 07:55:16;;;;;;;3.92;2.95;;;;;;;14.66;70.45;95746.38;5095610;28;20044;-67
2021/10/05 07:57:43;;;;;;;4.78;3.13;;;;;;;14.92;71.40;95765.19;5067929;28;20044;-66
2021/10/05 08:00:12;;;;;;;3.72;2.75;;;;;;;14.94;68.21;95763.13;5099105;28;20050;-66
2021/10/05 08:02:39;;;;;;;4.22;3.05;;;;;;;15.03;69.32;95748.59;5100111;28;20156;-66
2021/10/05 08:05:07;;;;;;;2.70;2.13;;;;;;;15.32;69.34;95764.28;5095884;28;20105;-66
2021/10/05 08:07:33;;;;;;;5.53;2.70;;;;;;;15.36;66.72;95760.19;5095532;28;20035;-66
2021/10/05 08:10:00;;;;;;;4.05;2.75;;;;;;;15.48;68.83;95742.53;5102545;28;20052;-66
2021/10/05 08:12:27;;;;;;;4.80;2.72;;;;;;;15.78;67.26;95757.16;5085637;28;20054;-67
2021/10/05 08:14:55;;;;;;;3.80;2.42;;;;;;;16.01;66.52;95750.13;5084343;28;20432;-66
2021/10/05 08:17:22;;;;;;;4.32;2.25;;;;;;;16.08;63.28;95749.94;5087132;28;20100;-66
2021/10/05 08:19:49;;;;;;;2.88;2.17;;;;;;;16.09;64.43;95741.03;5074386;28;20820;-66
2021/10/05 08:22:16;;;;;;;3.72;2.53;;;;;;;16.37;62.83;95763.72;5096548;28;20040;-66
2021/10/05 08:24:43;;;;;;;5.28;2.50;;;;;;;16.43;63.64;95762.75;5105856;28;20152;-67
2021/10/05 08:27:10;;;;;;;2.97;2.10;;;;;;;16.47;62.34;95748.06;5093789;28;20036;-67
2021/10/05 08:29:38;;;;;;;4.15;1.92;;;;;;;16.69;61.53;95770.91;5086428;28;20142;-69
2021/10/05 08:32:06;;;;;;;3.30;2.63;;;;;;;16.82;61.00;95765.28;5075034;28;20035;-67
2021/10/05 08:34:33;;;;;;;4.30;2.95;;;;;;;16.86;60.21;95766.41;5087823;28;20048;-67
2021/10/05 08:37:00;;;;;;;4.68;2.30;;;;;;;16.84;59.20;95757.97;5085868;28;20048;-67
2021/10/05 08:39:27;;;;;;;4.03;2.45;;;;;;;17.07;57.33;95761.34;5079686;28;20440;-68
2021/10/05 08:41:54;;;;;;;2.75;2.42;;;;;;;17.08;57.71;95742.66;5072669;28;20540;-67
2021/10/05 08:44:22;;;;;;;6.82;2.20;;;;;;;17.32;57.39;95756.31;5098963;28;20124;-68
2021/10/05 08:46:49;;;;;;;3.92;2.47;;;;;;;17.41;56.73;95753.22;5106912;28;20042;-68
2021/10/05 08:49:20;;;;;;;5.20;2.15;;;;;;;17.63;56.01;95743.38;5092725;28;20044;-68
2021/10/05 08:51:47;;;;;;;3.45;2.75;;;;;;;17.81;58.44;95744.00;5098701;28;20043;-67
2021/10/05 08:54:14;;;;;;;3.25;2.58;;;;;;;17.93;56.96;95742.00;5079374;28;20047;-67
2021/10/05 08:56:43;;;;;;;2.08;1.75;;;;;;;18.04;54.87;95725.22;5106192;28;20045;-68
2021/10/05 08:59:11;;;;;;;3.45;2.55;;;;;;;18.40;53.77;95743.84;5069984;28;20044;-68
2021/10/05 09:01:38;;;;;;;3.75;2.55;;;;;;;18.25;52.15;95743.78;5096867;28;20035;-68
2021/10/05 09:04:06;;;;;;;4.13;2.35;;;;;;;18.32;52.66;95715.31;5107354;28;20036;-67
2021/10/05 09:06:38;;;;;;;4.82;3.55;;;;;;;18.49;52.05;95739.66;5093896;28;20044;-67
2021/10/05 09:09:05;;;;;;;3.05;1.88;;;;;;;18.82;55.03;95721.84;5082910;28;20050;-68
2021/10/05 09:11:47;;;;;;;9.73;2.75;;;;;;;19.25;51.87;95738.25;5093516;28;20115;-68
2021/10/05 09:14:15;;;;;;;4.05;2.53;;;;;;;19.22;51.73;95736.13;5099893;28;20059;-67
2021/10/05 09:16:43;;;;;;;3.83;2.90;;;;;;;19.22;51.49;95733.50;5093049;28;20050;-68
2021/10/05 09:19:17;;;;;;;3.47;2.65;;;;;;;19.32;51.08;95729.25;5092242;28;20162;-68
2021/10/05 09:21:48;;;;;;;;;;;;;;;19.53;50.87;95725.56;5104698;28;20693;-68
2021/10/05 09:24:27;;;;;;;5.65;2.78;;;;;;;19.47;48.10;95716.06;5086285;28;19924;-67
2021/10/05 09:27:00;;;;;;;3.10;2.20;;;;;;;19.65;49.57;95718.16;5062966;28;20695;-68
2021/10/05 09:29:30;;;;;;;4.25;2.22;;;;;;;20.17;49.30;95720.72;5098203;28;20032;-68
2021/10/05 09:32:04;;;;;;;2.85;1.73;;;;;;;20.52;47.86;95724.28;5097174;28;20048;-68
2021/10/05 09:34:34;;;;;;;;;;;;;;;20.72;49.19;95718.91;5089976;28;20044;-68
2021/10/05 09:37:07;;;;;;;3.00;2.05;;;;;;;20.94;46.02;95705.28;5084675;28;19931;-68
2021/10/05 09:39:54;;;;;;;2.35;2.10;;;;;;;21.30;45.74;95714.81;5083510;28;20067;-68
2021/10/05 09:42:32;;;;;;;7.03;2.78;;;;;;;21.42;45.53;95715.25;5087587;28;20047;-67
2021/10/05 09:45:06;;;;;;;13.25;3.28;;;;;;;21.82;44.30;95702.69;5090742;28;20052;-68
2021/10/05 09:47:49;;;;;;;5.20;2.25;;;;;;;21.99;43.78;95706.81;5092828;28;20039;-67
2021/10/05 09:50:28;;;;;;;3.80;2.50;;;;;;;22.43;42.74;95700.47;5089670;28;20044;-67
2021/10/05 09:53:16;;;;;;;3.20;2.08;;;;;;;22.91;42.35;95700.34;5091474;28;20043;-68
2021/10/05 09:55:45;;;;;;;2.53;2.22;;;;;;;22.81;41.31;95705.81;5077842;28;20032;-68
2021/10/05 09:58:15;;;;;;;6.65;4.15;;;;;;;22.69;40.86;95693.75;5098841;28;20063;-67
2021/10/05 10:00:46;;;;;;;2.47;2.22;;;;;;;22.87;40.32;95692.16;5093069;28;20143;-67
2021/10/05 10:03:16;;;;;;;3.38;2.38;;;;;;;23.26;40.08;95706.22;5091107;28;20109;-67
2021/10/05 10:05:45;;;;;;;4.15;2.22;;;;;;;23.39;39.14;95702.84;5090160;28;20096;-67
2021/10/05 10:08:13;;;;;;;4.18;2.08;;;;;;;23.46;40.15;95700.59;5090317;28;20494;-67
2021/10/05 10:10:40;;;;;;;2.95;2.17;;;;;;;23.33;40.68;95680.06;5084833;28;20047;-67
2021/10/05 10:13:12;;;;;;;3.65;2.38;;;;;;;23.82;36.71;95686.69;5089677;28;20048;-67
2021/10/05 10:15:42;;;;;;;3.22;2.40;;;;;;;24.02;37.79;95700.69;5089013;28;20043;-68
2021/10/05 10:18:22;;;;;;;3.58;2.22;;;;;;;23.95;38.29;95701.09;5093170;28;20050;-67
2021/10/05 10:21:03;;;;;;;3.90;2.47;;;;;;;23.97;37.25;95687.50;5071152;28;20055;-67
2021/10/05 10:23:32;;;;;;;5.50;2.80;;;;;;;24.01;36.46;95688.47;5083898;28;20524;-68
2021/10/05 10:26:16;;;;;;;3.85;2.95;;;;;;;24.50;36.22;95686.16;5087395;28;20040;-67
2021/10/05 10:28:45;;;;;;;5.07;2.78;;;;;;;24.39;35.83;95677.59;5085449;28;20035;-68
2021/10/05 10:31:31;;;;;;;3.25;2.35;;;;;;;24.69;35.42;95678.09;5068315;28;20044;-68
2021/10/05 10:33:58;;;;;;;2.92;2.45;;;;;;;24.91;32.85;95662.09;5090481;28;20044;-68
2021/10/05 10:36:32;;;;;;;3.22;2.03;;;;;;;24.85;34.13;95676.66;5089455;28;20436;-68
2021/10/05 10:39:09;;;;;;;2.83;2.15;;;;;;;25.42;34.47;95680.66;5087825;28;20036;-68
2021/10/05 10:41:42;;;;;;;2.40;1.98;;;;;;;24.85;34.14;95667.84;5092626;28;20047;-68
2021/10/05 10:44:12;;;;;;;3.00;2.28;;;;;;;25.16;34.09;95667.94;5091087;28;20048;-68
2021/10/05 10:46:41;;;;;;;4.10;2.33;;;;;;;25.59;32.53;95672.75;5088902;28;20389;-68
2021/10/05 10:49:20;;;;;;;4.18;2.08;;;;;;;25.25;32.14;95658.13;5083181;28;20044;-68
2021/10/05 10:51:48;;;;;;;3.50;2.45;;;;;;;25.15;33.65;95671.69;5091416;28;20066;-68
2021/10/05 10:54:17;;;;;;;3.10;2.80;;;;;;;24.74;34.44;95688.59;5089798;28;20046;-69
2021/10/05 10:56:46;;;;;;;3.75;2.20;;;;;;;25.31;33.43;95672.91;5086749;28;20043;-68
2021/10/05 10:59:15;;;;;;;3.47;2.00;;;;;;;25.49;34.18;95657.78;5084943;28;20525;-68
2021/10/05 11:01:46;;;;;;;2.40;1.95;;;;;;;25.29;32.52;95661.75;5082420;28;20032;-69
2021/10/05 11:04:16;;;;;;;4.90;2.65;;;;;;;25.53;33.08;95660.63;5085241;28;20043;-69
2021/10/05 11:06:48;;;;;;;4.75;2.08;;;;;;;25.51;32.91;95668.16;5065985;28;20539;-68
2021/10/05 11:09:16;;;;;;;2.35;1.80;;;;;;;25.46;33.58;95665.63;5096729;28;20027;-66
2021/10/05 11:11:45;;;;;;;2.78;2.13;;;;;;;25.41;31.62;95658.56;5080358;28;20050;-66
2021/10/05 11:14:34;;;;;;;3.00;2.17;;;;;;;25.64;32.36;95648.63;5084915;28;20531;-67
2021/10/05 11:17:08;;;;;;;4.50;2.20;;;;;;;26.09;34.15;95651.19;5088542;28;20894;-66
2021/10/05 11:19:37;;;;;;;2.50;2.07;;;;;;;25.63;32.81;95643.59;5083341;28;20043;-67
2021/10/05 11:22:09;;;;;;;2.13;1.85;;;;;;;25.46;31.63;95658.44;5084307;28;20081;-67
2021/10/05 11:24:40;;;;;;;2.75;2.05;;;;;;;25.24;33.11;95658.41;5083880;28;20048;-68
2021/10/05 11:27:17;;;;;;;2.60;2.17;;;;;;;25.13;31.70;95657.88;5082614;28;20119;-67
2021/10/05 11:29:45;;;;;;;3.10;2.20;;;;;;;25.17;32.75;95658.81;5087008;28;20032;-68
2021/10/05 11:32:18;;;;;;;2.53;2.20;;;;;;;25.86;32.38;95641.66;5083437;28;20778;-67
2021/10/05 11:34:48;;;;;;;3.15;2.25;;;;;;;26.13;30.76;95646.78;5087558;28;20563;-66
2021/10/05 11:37:17;;;;;;;2.83;2.08;;;;;;;25.90;31.12;95637.28;5082330;28;20714;-68
2021/10/05 11:39:55;;;;;;;4.53;2.38;;;;;;;26.19;31.34;95643.97;5082280;28;20032;-68
2021/10/05 11:42:24;;;;;;;3.72;2.30;;;;;;;26.17;30.27;95640.81;5087136;28;20036;-68
2021/10/05 11:45:01;;;;;;;4.03;2.63;;;;;;;26.06;30.65;95645.66;5089989;28;20062;-68